Ki Zen — CFN6306 — position and weather

sailwx.info

Track history (hours):
 
Tides and Currents Weather Stations Pressure Air Temp Water Temp Dewpoint Dewpoint Depression Visibility Wind Speed Wind Dir Waves Ship Positions

Ki Zen

Last reported at 2018-Jun-16 06:33 UTC. Time now 2018-Jun-21 08:25 UTC.
Position N 33°03' W 117°51'.

Length 13 m.

Type: Sailing vessel. MMSI: 316021354.

Date/timePositionNaut miles runAvg speedWind from/ knotsBaromVisibWave heightAir tempDewpointWater temp
2018-Jun-16 06:33N 33°03' W 117°51'0 3.7
2018-Jun-16 06:29N 33°03' W 117°51'3 6.1
2018-Jun-16 05:59N 33°01' W 117°48'3 6.4
2018-Jun-16 05:30N 32°60' W 117°45'3 6.0
2018-Jun-16 04:59N 32°58' W 117°42'1 2.0
2018-Jun-16 04:30N 32°57' W 117°41'1 2.5
2018-Jun-16 03:57N 32°56' W 117°40'2 4.1
2018-Jun-16 03:29N 32°55' W 117°38'3 5.8
2018-Jun-16 03:00N 32°54' W 117°35'3 5.8
2018-Jun-16 02:30N 32°52' W 117°32'3 6.0
2018-Jun-16 01:58N 32°51' W 117°29'3 5.8
2018-Jun-16 01:29N 32°49' W 117°26'3 5.9
2018-Jun-16 01:00N 32°48' W 117°23'2 3.8
2018-Jun-16 00:29N 32°46' W 117°22'4 0.1
2018-Jun-13 23:50N 32°43' W 117°21'2 6.8
2018-Jun-13 23:30N 32°44' W 117°23'4 7.0
2018-Jun-13 22:58N 32°47' W 117°27'3 7.1
2018-Jun-13 22:30N 32°49' W 117°30'2 4.1
2018-Jun-13 22:00N 32°50' W 117°32'2 3.6
2018-Jun-13 21:30N 32°51' W 117°33'12 6.0
2018-Jun-13 19:31N 32°59' W 117°44'0 7.1
2018-Jun-13 19:30N 32°59' W 117°44'3 6.6
2018-Jun-13 19:00N 33°01' W 117°47'4 6.6
2018-Jun-13 18:28N 33°03' W 117°51'30 1.5
2018-Jun-12 23:08N 33°21' W 118°19'4 0.1
2018-Jun-11 02:23N 33°24' W 118°22'0 0.0
2018-Jun-11 01:56N 33°24' W 118°22'0 0.0
2018-Jun-11 00:59N 33°24' W 118°22'0 0.0
2018-Jun-11 00:26N 33°24' W 118°22'0 0.1
2018-Jun-10 23:59N 33°23' W 118°22'0 0.1
2018-Jun-10 23:29N 33°23' W 118°22'  
2018-Jun-08 14:04N 33°06' W 117°55'3 6.2
2018-Jun-08 13:34N 33°04' W 117°52'0 6.0
2018-Jun-08 13:30N 33°03' W 117°51'3 6.2
2018-Jun-08 13:00N 33°01' W 117°48'3 6.3
2018-Jun-08 12:30N 32°59' W 117°46'3 6.1
2018-Jun-08 12:00N 32°58' W 117°43'4 5.9
2018-Jun-08 11:24N 32°55' W 117°39'2 5.9
2018-Jun-08 11:00N 32°54' W 117°37'3 5.9
2018-Jun-08 10:29N 32°52' W 117°34'3 5.8
2018-Jun-08 10:00N 32°50' W 117°32'3 5.7
2018-Jun-08 09:30N 32°48' W 117°29'3 5.5
2018-Jun-08 09:00N 32°47' W 117°27'3 5.9
2018-Jun-08 08:30N 32°45' W 117°24'3 6.0
2018-Jun-08 08:00N 32°43' W 117°21'  
Track history (hours):
 
Tides and Currents Weather Stations Pressure Air Temp Water Temp Dewpoint Dewpoint Depression Visibility Wind Speed Wind Dir Waves Ship Positions

Ki Zen

Last reported at 2018-Jun-16 06:33 UTC. Time now 2018-Jun-21 08:25 UTC.
Position N 33°03' W 117°51'.

Length 13 m.

Type: Sailing vessel. MMSI: 316021354.

Date/timePositionNaut miles runAvg speedWind from/ knotsBaromVisibWave heightAir tempDewpointWater temp
2018-Jun-16 06:33N 33°03' W 117°51'0 3.7
2018-Jun-16 06:29N 33°03' W 117°51'3 6.1
2018-Jun-16 05:59N 33°01' W 117°48'3 6.4
2018-Jun-16 05:30N 32°60' W 117°45'3 6.0
2018-Jun-16 04:59N 32°58' W 117°42'1 2.0
2018-Jun-16 04:30N 32°57' W 117°41'1 2.5
2018-Jun-16 03:57N 32°56' W 117°40'2 4.1
2018-Jun-16 03:29N 32°55' W 117°38'3 5.8
2018-Jun-16 03:00N 32°54' W 117°35'3 5.8
2018-Jun-16 02:30N 32°52' W 117°32'3 6.0
2018-Jun-16 01:58N 32°51' W 117°29'3 5.8
2018-Jun-16 01:29N 32°49' W 117°26'3 5.9
2018-Jun-16 01:00N 32°48' W 117°23'2 3.8
2018-Jun-16 00:29N 32°46' W 117°22'4 0.1
2018-Jun-13 23:50N 32°43' W 117°21'2 6.8
2018-Jun-13 23:30N 32°44' W 117°23'4 7.0
2018-Jun-13 22:58N 32°47' W 117°27'3 7.1
2018-Jun-13 22:30N 32°49' W 117°30'2 4.1
2018-Jun-13 22:00N 32°50' W 117°32'2 3.6
2018-Jun-13 21:30N 32°51' W 117°33'12 6.0
2018-Jun-13 19:31N 32°59' W 117°44'0 7.1
2018-Jun-13 19:30N 32°59' W 117°44'3 6.6
2018-Jun-13 19:00N 33°01' W 117°47'4 6.6
2018-Jun-13 18:28N 33°03' W 117°51'30 1.5
2018-Jun-12 23:08N 33°21' W 118°19'4 0.1
2018-Jun-11 02:23N 33°24' W 118°22'0 0.0
2018-Jun-11 01:56N 33°24' W 118°22'0 0.0
2018-Jun-11 00:59N 33°24' W 118°22'0 0.0
2018-Jun-11 00:26N 33°24' W 118°22'0 0.1
2018-Jun-10 23:59N 33°23' W 118°22'0 0.1
2018-Jun-10 23:29N 33°23' W 118°22'  
2018-Jun-08 14:04N 33°06' W 117°55'3 6.2
2018-Jun-08 13:34N 33°04' W 117°52'0 6.0
2018-Jun-08 13:30N 33°03' W 117°51'3 6.2
2018-Jun-08 13:00N 33°01' W 117°48'3 6.3
2018-Jun-08 12:30N 32°59' W 117°46'3 6.1
2018-Jun-08 12:00N 32°58' W 117°43'4 5.9
2018-Jun-08 11:24N 32°55' W 117°39'2 5.9
2018-Jun-08 11:00N 32°54' W 117°37'3 5.9
2018-Jun-08 10:29N 32°52' W 117°34'3 5.8
2018-Jun-08 10:00N 32°50' W 117°32'3 5.7
2018-Jun-08 09:30N 32°48' W 117°29'3 5.5
2018-Jun-08 09:00N 32°47' W 117°27'3 5.9
2018-Jun-08 08:30N 32°45' W 117°24'3 6.0
2018-Jun-08 08:00N 32°43' W 117°21'  

Dump ship's entire track history